createdAt,value
2023-01-09T00:00:03.591Z,575
2023-01-09T00:01:03.612Z,495
2023-01-09T00:03:03.743Z,634
2023-01-09T00:04:03.683Z,641
2023-01-09T00:05:03.559Z,501
2023-01-09T00:06:03.603Z,500
2023-01-09T00:08:03.772Z,659
2023-01-09T00:09:03.604Z,523
2023-01-09T00:10:03.611Z,660
2023-01-09T00:11:03.559Z,506
2023-01-09T00:13:03.778Z,732
2023-01-09T00:14:03.616Z,491
2023-01-09T00:15:03.589Z,519
2023-01-09T00:16:03.611Z,400
2023-01-09T00:18:03.779Z,543
2023-01-09T00:19:03.620Z,413
2023-01-09T00:20:03.625Z,552
2023-01-09T00:21:03.563Z,549
2023-01-09T00:23:03.783Z,570
2023-01-09T00:24:03.610Z,560
2023-01-09T00:25:03.611Z,432
2023-01-09T00:26:03.574Z,432
2023-01-09T00:28:03.743Z,584
2023-01-09T00:29:03.616Z,424
2023-01-09T00:30:03.621Z,455
2023-01-09T00:31:03.691Z,450
2023-01-09T00:33:03.766Z,497
2023-01-09T00:34:03.649Z,592
2023-01-09T00:35:03.568Z,441
2023-01-09T00:36:03.613Z,580
2023-01-09T00:38:03.809Z,536
2023-01-09T00:39:03.573Z,432
2023-01-09T00:40:03.611Z,581
2023-01-09T00:41:03.565Z,617
2023-01-09T00:43:03.821Z,626
2023-01-09T00:44:03.568Z,439
2023-01-09T00:45:03.582Z,599
2023-01-09T00:46:03.662Z,455
2023-01-09T00:48:03.884Z,645
2023-01-09T00:49:03.638Z,618
2023-01-09T00:50:03.568Z,599
2023-01-09T00:51:03.615Z,452
2023-01-09T00:53:03.853Z,603
2023-01-09T00:54:03.623Z,486
2023-01-09T00:55:03.621Z,462
2023-01-09T00:56:03.626Z,600
2023-01-09T00:58:03.765Z,597
2023-01-09T00:59:03.609Z,435
2023-01-09T01:00:03.629Z,428
2023-01-09T01:01:03.779Z,575
2023-01-09T01:03:03.899Z,424
2023-01-09T01:04:03.609Z,518
2023-01-09T01:05:03.630Z,514
2023-01-09T01:06:03.578Z,401
2023-01-09T01:08:03.793Z,543
2023-01-09T01:09:03.642Z,543
2023-01-09T01:10:03.596Z,426
2023-01-09T01:11:03.583Z,400
2023-01-09T01:13:03.764Z,540
2023-01-09T01:14:03.634Z,441
2023-01-09T01:15:03.657Z,586
2023-01-09T01:16:03.646Z,427
2023-01-09T01:18:03.773Z,560
2023-01-09T01:19:03.634Z,589
2023-01-09T01:20:03.588Z,503
2023-01-09T01:21:03.630Z,574
2023-01-09T01:23:03.767Z,432
2023-01-09T01:24:03.644Z,566
2023-01-09T01:25:03.593Z,420
2023-01-09T01:26:03.590Z,414
2023-01-09T01:28:03.789Z,569
2023-01-09T01:29:03.584Z,618
2023-01-09T01:30:03.592Z,641
2023-01-09T01:31:03.724Z,480
2023-01-09T01:33:03.773Z,640
2023-01-09T01:34:03.663Z,646
2023-01-09T01:35:03.664Z,524
2023-01-09T01:36:03.593Z,646
2023-01-09T01:38:03.785Z,473
2023-01-09T01:39:03.638Z,549
2023-01-09T01:40:03.593Z,560
2023-01-09T01:41:03.637Z,518
2023-01-09T01:43:03.789Z,416
2023-01-09T01:44:03.609Z,588
2023-01-09T01:45:03.651Z,588
2023-01-09T01:46:03.658Z,448
2023-01-09T01:48:03.788Z,436
2023-01-09T01:49:03.634Z,475
2023-01-09T01:50:03.712Z,439
2023-01-09T01:51:03.608Z,649
2023-01-09T01:53:03.806Z,492
2023-01-09T01:54:03.648Z,637
2023-01-09T01:55:03.646Z,634
2023-01-09T01:56:03.651Z,483
2023-01-09T01:58:03.779Z,629
2023-01-09T01:59:03.659Z,672
2023-01-09T02:00:03.598Z,503
2023-01-09T02:01:03.739Z,560
2023-01-09T02:03:03.898Z,491
2023-01-09T02:04:03.602Z,668
2023-01-09T02:05:03.604Z,591
2023-01-09T02:06:03.609Z,668
2023-01-09T02:08:03.780Z,518
2023-01-09T02:09:03.609Z,485
2023-01-09T02:10:03.678Z,672
2023-01-09T02:11:03.648Z,589
2023-01-09T02:13:03.807Z,629
2023-01-09T02:14:03.653Z,653
2023-01-09T02:15:03.665Z,483
2023-01-09T02:16:03.636Z,646
2023-01-09T02:18:03.814Z,498
2023-01-09T02:19:03.683Z,500
2023-01-09T02:20:03.601Z,672
2023-01-09T02:21:03.628Z,502
2023-01-09T02:23:03.788Z,671
2023-01-09T02:24:03.617Z,408
2023-01-09T02:25:03.613Z,436
2023-01-09T02:26:03.686Z,572
2023-01-09T02:28:03.792Z,555
2023-01-09T02:29:03.615Z,641
2023-01-09T02:30:03.613Z,615
2023-01-09T02:31:03.688Z,462
2023-01-09T02:33:03.804Z,548
2023-01-09T02:34:03.657Z,465
2023-01-09T02:35:03.629Z,502
2023-01-09T02:36:03.621Z,465
2023-01-09T02:38:03.799Z,492
2023-01-09T02:39:03.611Z,666
2023-01-09T02:40:03.610Z,508
2023-01-09T02:41:03.689Z,674
2023-01-09T02:43:03.832Z,678
2023-01-09T02:44:03.619Z,475
2023-01-09T02:45:03.619Z,623
2023-01-09T02:46:03.673Z,623
2023-01-09T02:48:03.796Z,466
2023-01-09T02:49:03.675Z,634
2023-01-09T02:50:03.672Z,524
2023-01-09T02:51:03.622Z,640
2023-01-09T02:53:03.819Z,491
2023-01-09T02:54:03.626Z,531
2023-01-09T02:55:03.693Z,683
2023-01-09T02:56:03.678Z,520
2023-01-09T02:58:03.861Z,487
2023-01-09T02:59:03.621Z,617
2023-01-09T03:00:03.695Z,465
2023-01-09T03:01:03.700Z,505
2023-01-09T03:03:03.870Z,657
2023-01-09T03:04:03.703Z,679
2023-01-09T03:05:03.637Z,572
2023-01-09T03:06:03.701Z,624
2023-01-09T03:08:03.805Z,596
2023-01-09T03:09:03.629Z,690
2023-01-09T03:10:03.631Z,682
2023-01-09T03:11:03.683Z,694
2023-01-09T03:13:03.809Z,692
2023-01-09T03:14:03.628Z,540
2023-01-09T03:15:03.704Z,726
2023-01-09T03:16:03.700Z,704
2023-01-09T03:18:03.809Z,529
2023-01-09T03:19:03.678Z,666
2023-01-09T03:20:03.686Z,678
2023-01-09T03:21:03.680Z,505
2023-01-09T03:23:03.817Z,520
2023-01-09T03:24:03.633Z,730
2023-01-09T03:25:03.691Z,543
2023-01-09T03:26:03.716Z,715
2023-01-09T03:28:03.817Z,717
2023-01-09T03:29:03.682Z,733
2023-01-09T03:30:03.635Z,542
2023-01-09T03:31:03.679Z,572
2023-01-09T03:33:03.811Z,552
2023-01-09T03:34:03.639Z,749
2023-01-09T03:35:03.640Z,757
2023-01-09T03:36:03.692Z,518
2023-01-09T03:38:03.964Z,715
2023-01-09T03:39:03.637Z,592
2023-01-09T03:40:03.641Z,678
2023-01-09T03:41:03.631Z,699
2023-01-09T03:43:03.831Z,641
2023-01-09T03:44:03.643Z,572
2023-01-09T03:45:03.654Z,735
2023-01-09T03:46:03.807Z,694
2023-01-09T03:48:03.818Z,577
2023-01-09T03:49:03.697Z,800
2023-01-09T03:50:03.700Z,611
2023-01-09T03:51:03.692Z,749
2023-01-09T03:53:03.894Z,682
2023-01-09T03:54:03.721Z,572
2023-01-09T03:55:03.693Z,808
2023-01-09T03:56:03.724Z,752
2023-01-09T03:58:03.842Z,746
2023-01-09T03:59:03.645Z,733
2023-01-09T04:00:03.710Z,518
2023-01-09T04:01:03.751Z,675
2023-01-09T04:03:03.852Z,732
2023-01-09T04:04:03.733Z,555
2023-01-09T04:05:03.649Z,726
2023-01-09T04:06:03.720Z,733
2023-01-09T04:08:03.821Z,708
2023-01-09T04:09:03.660Z,679
2023-01-09T04:10:03.667Z,524
2023-01-09T04:11:03.663Z,679
2023-01-09T04:13:03.835Z,524
2023-01-09T04:14:03.737Z,827
2023-01-09T04:15:03.735Z,815
2023-01-09T04:16:03.724Z,785
2023-01-09T04:18:03.835Z,623
2023-01-09T04:19:03.701Z,815
2023-01-09T04:20:03.662Z,804
2023-01-09T04:21:03.707Z,584
2023-01-09T04:23:03.855Z,580
2023-01-09T04:24:03.702Z,759
2023-01-09T04:25:03.702Z,626
2023-01-09T04:26:03.660Z,567
2023-01-09T04:28:03.901Z,567
2023-01-09T04:29:03.711Z,560
2023-01-09T04:30:03.658Z,765
2023-01-09T04:31:03.685Z,763
2023-01-09T04:33:03.875Z,778
2023-01-09T04:34:03.718Z,674
2023-01-09T04:35:03.661Z,863
2023-01-09T04:36:03.711Z,882
2023-01-09T04:38:03.932Z,618
2023-01-09T04:39:03.711Z,564
2023-01-09T04:40:03.661Z,612
2023-01-09T04:41:03.669Z,819
2023-01-09T04:43:03.907Z,634
2023-01-09T04:44:03.711Z,605
2023-01-09T04:45:03.677Z,795
2023-01-09T04:46:03.724Z,793
2023-01-09T04:48:03.852Z,806
2023-01-09T04:49:03.668Z,808
2023-01-09T04:50:03.676Z,793
2023-01-09T04:51:03.667Z,567
2023-01-09T04:53:03.925Z,804
2023-01-09T04:54:03.710Z,853
2023-01-09T04:55:03.723Z,819
2023-01-09T04:56:03.726Z,844
2023-01-09T04:58:03.866Z,646
2023-01-09T04:59:03.678Z,666
2023-01-09T05:00:03.733Z,882
2023-01-09T05:01:03.799Z,694
2023-01-09T05:03:03.854Z,700
2023-01-09T05:04:03.740Z,874
2023-01-09T05:05:03.728Z,646
2023-01-09T05:06:03.762Z,874
2023-01-09T05:08:03.875Z,761
2023-01-09T05:09:03.744Z,844
2023-01-09T05:10:03.749Z,840
2023-01-09T05:11:03.683Z,652
2023-01-09T05:13:03.877Z,650
2023-01-09T05:14:03.711Z,802
2023-01-09T05:15:03.722Z,637
2023-01-09T05:16:03.737Z,656
2023-01-09T05:18:03.859Z,877
2023-01-09T05:19:03.736Z,638
2023-01-09T05:20:03.738Z,810
2023-01-09T05:21:03.731Z,834
2023-01-09T05:23:03.858Z,757
2023-01-09T05:24:03.680Z,660
2023-01-09T05:25:03.724Z,877
2023-01-09T05:26:03.725Z,872
2023-01-09T05:28:03.855Z,821
2023-01-09T05:29:03.699Z,895
2023-01-09T05:30:03.729Z,913
2023-01-09T05:31:03.746Z,882
2023-01-09T05:33:03.866Z,641
2023-01-09T05:34:03.776Z,659
2023-01-09T05:35:03.735Z,659
2023-01-09T05:36:03.681Z,666
2023-01-09T05:38:03.869Z,778
2023-01-09T05:39:03.770Z,995
2023-01-09T05:40:03.731Z,1041
2023-01-09T05:41:03.679Z,763
2023-01-09T05:43:03.865Z,972
2023-01-09T05:44:03.688Z,638
2023-01-09T05:45:03.741Z,874
2023-01-09T05:46:03.836Z,659
2023-01-09T05:48:03.886Z,665
2023-01-09T05:49:03.698Z,851
2023-01-09T05:50:03.721Z,650
2023-01-09T05:51:03.680Z,832
2023-01-09T05:53:03.889Z,868
2023-01-09T05:54:03.771Z,599
2023-01-09T05:55:03.732Z,905
2023-01-09T05:56:03.765Z,915
2023-01-09T05:58:03.881Z,920
2023-01-09T05:59:03.720Z,645
2023-01-09T06:00:03.776Z,817
2023-01-09T06:01:03.736Z,600
2023-01-09T06:03:03.977Z,821
2023-01-09T06:04:03.747Z,657
2023-01-09T06:05:03.697Z,641
2023-01-09T06:06:03.698Z,656
2023-01-09T06:08:03.895Z,855
2023-01-09T06:09:03.702Z,674
2023-01-09T06:10:03.751Z,567
2023-01-09T06:11:03.713Z,697
2023-01-09T06:13:03.876Z,699
2023-01-09T06:14:03.744Z,897
2023-01-09T06:15:03.720Z,699
2023-01-09T06:16:03.767Z,683
2023-01-09T06:18:03.883Z,874
2023-01-09T06:19:03.703Z,675
2023-01-09T06:20:03.705Z,857
2023-01-09T06:21:03.702Z,895
2023-01-09T06:23:03.885Z,885
2023-01-09T06:24:03.755Z,615
2023-01-09T06:25:03.760Z,793
2023-01-09T06:26:03.770Z,549
2023-01-09T06:28:03.886Z,821
2023-01-09T06:29:03.709Z,795
2023-01-09T06:30:03.713Z,793
2023-01-09T06:31:03.844Z,768
2023-01-09T06:33:03.894Z,783
2023-01-09T06:34:03.773Z,607
2023-01-09T06:35:03.753Z,778
2023-01-09T06:36:03.800Z,671
2023-01-09T06:38:03.898Z,671
2023-01-09T06:39:03.755Z,897
2023-01-09T06:40:03.775Z,656
2023-01-09T06:41:03.704Z,646
2023-01-09T06:43:03.895Z,830
2023-01-09T06:44:03.716Z,597
2023-01-09T06:45:03.758Z,787
2023-01-09T06:46:03.718Z,594
2023-01-09T06:48:03.915Z,770
2023-01-09T06:49:03.721Z,819
2023-01-09T06:50:03.764Z,634
2023-01-09T06:51:03.739Z,821
2023-01-09T06:53:03.872Z,815
2023-01-09T06:54:03.786Z,783
2023-01-09T06:55:03.770Z,868
2023-01-09T06:56:03.781Z,780
2023-01-09T06:58:03.907Z,836
2023-01-09T06:59:03.743Z,618
2023-01-09T07:00:03.723Z,793
2023-01-09T07:01:03.860Z,600
2023-01-09T07:03:03.907Z,742
2023-01-09T07:04:03.777Z,600
2023-01-09T07:05:03.721Z,817
2023-01-09T07:06:03.726Z,813
2023-01-09T07:08:03.927Z,793
2023-01-09T07:09:03.778Z,780
2023-01-09T07:10:03.776Z,650
2023-01-09T07:11:03.721Z,556
2023-01-09T07:13:03.892Z,730
2023-01-09T07:14:03.781Z,733
2023-01-09T07:15:03.714Z,567
2023-01-09T07:16:03.751Z,694
2023-01-09T07:18:03.902Z,742
2023-01-09T07:19:03.724Z,660
2023-01-09T07:20:03.734Z,882
2023-01-09T07:21:03.724Z,666
2023-01-09T07:23:03.907Z,638
2023-01-09T07:24:03.770Z,672
2023-01-09T07:25:03.783Z,749
2023-01-09T07:26:03.774Z,726
2023-01-09T07:28:03.969Z,754
2023-01-09T07:29:03.791Z,742
2023-01-09T07:30:03.734Z,567
2023-01-09T07:31:03.789Z,752
2023-01-09T07:33:04.233Z,757
2023-01-09T07:34:03.780Z,565
2023-01-09T07:35:03.781Z,710
2023-01-09T07:36:03.787Z,543
2023-01-09T07:38:03.910Z,545
2023-01-09T07:39:03.731Z,565
2023-01-09T07:40:03.784Z,666
2023-01-09T07:41:03.790Z,623
2023-01-09T07:43:03.908Z,730
2023-01-09T07:44:03.731Z,737
2023-01-09T07:45:03.781Z,708
2023-01-09T07:46:03.758Z,737
2023-01-09T07:48:03.923Z,714
2023-01-09T07:49:03.736Z,597
2023-01-09T07:50:03.798Z,793
2023-01-09T07:51:03.789Z,798
2023-01-09T07:53:03.938Z,778
2023-01-09T07:54:03.790Z,581
2023-01-09T07:55:03.732Z,765
2023-01-09T07:56:03.790Z,553
2023-01-09T07:58:03.940Z,529
2023-01-09T07:59:03.779Z,493
2023-01-09T08:00:03.749Z,643
2023-01-09T08:01:03.833Z,491
2023-01-09T08:03:04.080Z,631
2023-01-09T08:04:03.741Z,624
2023-01-09T08:05:03.745Z,643
2023-01-09T08:06:03.786Z,641
2023-01-09T08:08:03.988Z,641
2023-01-09T08:09:03.745Z,638
2023-01-09T08:10:03.798Z,660
2023-01-09T08:11:03.741Z,637
2023-01-09T08:13:03.985Z,629
2023-01-09T08:14:03.815Z,599
2023-01-09T08:15:03.801Z,714
2023-01-09T08:16:03.937Z,620
2023-01-09T08:18:03.951Z,690
2023-01-09T08:19:03.799Z,584
2023-01-09T08:20:03.804Z,798
2023-01-09T08:21:03.803Z,586
2023-01-09T08:23:03.963Z,546
2023-01-09T08:24:03.801Z,735
2023-01-09T08:25:03.803Z,470
2023-01-09T08:26:03.798Z,712
2023-01-09T08:28:03.934Z,712
2023-01-09T08:29:03.804Z,475
2023-01-09T08:30:03.815Z,656
2023-01-09T08:31:03.854Z,534
2023-01-09T08:33:03.945Z,546
2023-01-09T08:34:03.809Z,666
2023-01-09T08:35:03.905Z,444
2023-01-09T08:36:03.822Z,577
2023-01-09T08:38:03.940Z,656
2023-01-09T08:39:03.764Z,520
2023-01-09T08:40:03.762Z,527
2023-01-09T08:41:03.802Z,520
2023-01-09T08:43:03.974Z,410
2023-01-09T08:45:03.765Z,686
2023-01-09T08:46:03.806Z,488
2023-01-09T08:48:03.932Z,728
2023-01-09T08:49:03.811Z,708
2023-01-09T08:50:03.842Z,706
2023-01-09T08:51:03.805Z,627
2023-01-09T08:53:03.965Z,634
2023-01-09T08:54:03.770Z,617
2023-01-09T08:55:03.777Z,641
2023-01-09T08:56:03.809Z,584
2023-01-09T08:58:04.008Z,603
2023-01-09T08:59:03.847Z,447
2023-01-09T09:00:03.769Z,502
2023-01-09T09:01:03.764Z,649
2023-01-09T09:03:04.138Z,671
2023-01-09T09:04:03.825Z,565
2023-01-09T09:05:03.768Z,540
2023-01-09T09:06:03.772Z,575
2023-01-09T09:08:03.952Z,549
2023-01-09T09:09:03.851Z,710
2023-01-09T09:10:03.816Z,570
2023-01-09T09:11:03.834Z,746
2023-01-09T09:13:04.038Z,555
2023-01-09T09:14:03.773Z,638
2023-01-09T09:15:03.813Z,537
2023-01-09T09:16:03.852Z,653
2023-01-09T09:18:04.008Z,646
2023-01-09T09:19:03.823Z,699
2023-01-09T09:20:03.821Z,719
2023-01-09T09:21:03.834Z,555
2023-01-09T09:23:03.960Z,732
2023-01-09T09:24:03.775Z,668
2023-01-09T09:25:03.823Z,527
2023-01-09T09:26:03.788Z,668
2023-01-09T09:28:03.971Z,657
2023-01-09T09:29:03.773Z,846
2023-01-09T09:30:03.836Z,804
2023-01-09T09:31:03.838Z,629
2023-01-09T09:33:03.985Z,836
2023-01-09T09:34:03.853Z,754
2023-01-09T09:35:03.822Z,765
2023-01-09T09:36:03.784Z,776
2023-01-09T09:38:05.119Z,592
2023-01-09T09:39:03.860Z,793
2023-01-09T09:40:17.374Z,774
2023-01-09T09:41:03.836Z,592
2023-01-09T09:43:03.978Z,612
2023-01-09T09:44:03.829Z,848
2023-01-09T09:45:03.837Z,643
2023-01-09T09:46:03.831Z,857
2023-01-09T09:48:04.219Z,857
2023-01-09T09:49:05.091Z,853
2023-01-09T09:50:03.791Z,795
2023-01-09T09:51:03.776Z,848
2023-01-09T09:53:03.984Z,649
2023-01-09T09:54:03.846Z,645
2023-01-09T09:55:03.843Z,848
2023-01-09T09:56:03.843Z,652
2023-01-09T09:58:03.941Z,865
2023-01-09T09:59:03.789Z,933
2023-01-09T10:00:03.789Z,623
2023-01-09T10:01:03.837Z,918
2023-01-09T10:03:04.031Z,719
2023-01-09T10:04:03.865Z,905
2023-01-09T10:05:03.841Z,659
2023-01-09T10:06:03.834Z,675
2023-01-09T10:08:15.283Z,872
2023-01-09T10:09:03.875Z,915
2023-01-09T10:10:03.857Z,1041
2023-01-09T10:11:03.794Z,977
2023-01-09T10:13:03.992Z,967
2023-01-09T10:14:05.792Z,977
2023-01-09T10:15:03.898Z,880
2023-01-09T10:16:03.842Z,902
2023-01-09T10:18:04.016Z,975
2023-01-09T10:19:03.846Z,834
2023-01-09T10:20:03.808Z,683
2023-01-09T10:21:03.829Z,949
2023-01-09T10:23:03.965Z,902
2023-01-09T10:24:03.803Z,697
2023-01-09T10:25:03.846Z,1014
2023-01-09T10:26:03.802Z,759
2023-01-09T10:28:03.963Z,776
2023-01-09T10:29:03.848Z,954
2023-01-09T10:30:03.817Z,717
2023-01-09T10:31:03.844Z,688
2023-01-09T10:33:03.981Z,956
2023-01-09T10:34:03.848Z,715
2023-01-09T10:35:03.857Z,967
2023-01-09T10:36:03.870Z,972
2023-01-09T10:38:03.951Z,868
2023-01-09T10:39:03.880Z,761
2023-01-09T10:40:03.870Z,972
2023-01-09T10:41:03.896Z,1231
2023-01-09T10:43:03.960Z,853
2023-01-09T10:44:03.888Z,1068
2023-01-09T10:45:03.845Z,897
2023-01-09T10:46:03.905Z,1198
2023-01-09T10:48:03.995Z,778
2023-01-09T10:49:03.822Z,995
2023-01-09T10:50:03.887Z,645
2023-01-09T10:51:03.808Z,646
2023-01-09T10:53:04.051Z,732
2023-01-09T10:54:03.821Z,956
2023-01-09T10:55:03.874Z,719
2023-01-09T10:56:03.854Z,679
2023-01-09T10:58:03.994Z,880
2023-01-09T10:59:03.819Z,987
2023-01-09T11:00:03.831Z,749
2023-01-09T11:01:03.814Z,768
2023-01-09T11:03:04.053Z,1102
2023-01-09T11:04:03.859Z,765
2023-01-09T11:05:03.817Z,920
2023-01-09T11:06:03.813Z,977
2023-01-09T11:08:03.980Z,1041
2023-01-09T11:09:03.816Z,1038
2023-01-09T11:10:03.818Z,995
2023-01-09T11:11:03.823Z,749
2023-01-09T11:13:03.992Z,927
2023-01-09T11:14:03.816Z,572
2023-01-09T11:15:03.867Z,675
2023-01-09T11:16:03.893Z,853
2023-01-09T11:18:03.978Z,617
2023-01-09T11:19:03.811Z,851
2023-01-09T11:20:03.829Z,634
2023-01-09T11:21:03.824Z,863
2023-01-09T11:23:04.001Z,851
2023-01-09T11:24:03.867Z,634
2023-01-09T11:25:03.880Z,806
2023-01-09T11:26:03.883Z,637
2023-01-09T11:28:04.020Z,599
2023-01-09T11:29:03.869Z,475
2023-01-09T11:30:03.820Z,730
2023-01-09T11:31:03.888Z,646
2023-01-09T11:33:04.037Z,877
2023-01-09T11:34:03.908Z,688
2023-01-09T11:35:03.878Z,620
2023-01-09T11:36:03.836Z,925
2023-01-09T11:38:04.034Z,925
2023-01-09T11:39:03.906Z,815
2023-01-09T11:40:03.876Z,819
2023-01-09T11:41:03.879Z,830
2023-01-09T11:43:03.989Z,810
2023-01-09T11:44:03.831Z,603
2023-01-09T11:45:03.872Z,714
2023-01-09T11:46:03.836Z,759
2023-01-09T11:48:04.051Z,714
2023-01-09T11:49:03.874Z,935
2023-01-09T11:50:03.832Z,935
2023-01-09T11:51:03.836Z,927
2023-01-09T11:53:04.013Z,830
2023-01-09T11:54:03.916Z,637
2023-01-09T11:55:03.888Z,834
2023-01-09T11:56:03.919Z,787
2023-01-09T11:58:04.027Z,870
2023-01-09T11:59:03.881Z,855
2023-01-09T12:00:03.912Z,885
2023-01-09T12:01:03.898Z,612
2023-01-09T12:03:04.038Z,607
2023-01-09T12:04:03.886Z,851
2023-01-09T12:05:03.916Z,674
2023-01-09T12:06:03.876Z,548
2023-01-09T12:08:04.019Z,556
2023-01-09T12:09:03.842Z,548
2023-01-09T12:10:03.884Z,699
2023-01-09T12:11:03.844Z,704
2023-01-09T12:13:04.061Z,714
2023-01-09T12:14:03.873Z,752
2023-01-09T12:15:03.860Z,540
2023-01-09T12:16:03.911Z,719
2023-01-09T12:18:04.021Z,551
2023-01-09T12:19:03.842Z,514
2023-01-09T12:20:03.861Z,534
2023-01-09T12:21:03.859Z,518
2023-01-09T12:23:04.024Z,524
2023-01-09T12:24:03.859Z,643
2023-01-09T12:25:03.847Z,650
2023-01-09T12:26:03.855Z,600
2023-01-09T12:28:04.024Z,496
2023-01-09T12:29:03.877Z,493
2023-01-09T12:30:03.897Z,503
2023-01-09T12:31:03.918Z,653
2023-01-09T12:33:04.043Z,678
2023-01-09T12:34:03.852Z,732
2023-01-09T12:35:03.917Z,704
2023-01-09T12:36:03.909Z,491
2023-01-09T12:38:04.002Z,487
2023-01-09T12:39:03.908Z,688
2023-01-09T12:40:03.912Z,602
2023-01-09T12:41:04.967Z,694
2023-01-09T12:43:04.007Z,515
2023-01-09T12:44:03.900Z,638
2023-01-09T12:45:03.906Z,631
2023-01-09T12:46:03.937Z,646
2023-01-09T12:48:04.012Z,466
2023-01-09T12:49:03.856Z,620
2023-01-09T12:50:03.914Z,643
2023-01-09T12:51:03.864Z,492
2023-01-09T12:53:04.061Z,602
2023-01-09T12:54:03.856Z,578
2023-01-09T12:55:05.078Z,476
2023-01-09T12:56:03.910Z,530
2023-01-09T12:58:04.062Z,571
2023-01-09T12:59:03.908Z,480
2023-01-09T13:00:03.866Z,480
2023-01-09T13:01:03.875Z,596
2023-01-09T13:03:11.900Z,480
2023-01-09T13:04:03.864Z,552
2023-01-09T13:05:03.867Z,521
2023-01-09T13:06:03.865Z,626
2023-01-09T13:08:04.043Z,521
2023-01-09T13:09:03.907Z,564
2023-01-09T13:10:03.895Z,565
2023-01-09T13:11:18.776Z,496
2023-01-09T13:13:04.051Z,535
2023-01-09T13:14:03.919Z,530
2023-01-09T13:15:03.880Z,530
2023-01-09T13:16:03.934Z,596
2023-01-09T13:18:04.032Z,548
2023-01-09T13:19:03.866Z,460
2023-01-09T13:20:03.928Z,491
2023-01-09T13:21:03.865Z,460
2023-01-09T13:23:04.051Z,515
2023-01-09T13:24:03.922Z,502
2023-01-09T13:25:03.948Z,496
2023-01-09T13:26:03.933Z,445
2023-01-09T13:28:04.037Z,445
2023-01-09T13:29:03.871Z,426
2023-01-09T13:30:03.916Z,434
2023-01-09T13:31:03.946Z,426
2023-01-09T13:33:04.148Z,471
2023-01-09T13:34:04.495Z,485
2023-01-09T13:35:03.972Z,436
2023-01-09T13:36:03.909Z,436
2023-01-09T13:38:04.023Z,460
2023-01-09T13:39:03.885Z,507
2023-01-09T13:40:03.880Z,460
2023-01-09T13:41:03.958Z,507
2023-01-09T13:43:04.050Z,495
2023-01-09T13:44:03.931Z,541
2023-01-09T13:45:03.954Z,505
2023-01-09T13:46:04.015Z,505
2023-01-09T13:48:04.202Z,505
2023-01-09T13:49:03.947Z,460
2023-01-09T13:50:03.898Z,477
2023-01-09T13:51:03.906Z,464
2023-01-09T13:53:04.063Z,460
2023-01-09T13:54:03.883Z,426
2023-01-09T13:55:03.964Z,426
2023-01-09T13:56:03.933Z,426
2023-01-09T13:58:04.047Z,426
2023-01-09T13:59:03.894Z,452
2023-01-09T14:00:03.889Z,452
2023-01-09T14:01:04.561Z,452
2023-01-09T14:03:04.063Z,452
2023-01-09T14:04:03.926Z,488
2023-01-09T14:05:03.900Z,488
2023-01-09T14:06:03.904Z,488
2023-01-09T14:08:04.035Z,488
2023-01-09T14:09:03.889Z,530
2023-01-09T14:10:03.917Z,530
2023-01-09T14:11:03.889Z,530
2023-01-09T14:13:04.088Z,530
2023-01-09T14:14:03.933Z,496
2023-01-09T14:15:03.899Z,496
2023-01-09T14:16:03.951Z,496
2023-01-09T14:18:04.163Z,496
2023-01-09T14:19:03.892Z,549
2023-01-09T14:20:03.906Z,549
2023-01-09T14:21:03.904Z,549
2023-01-09T14:23:31.697Z,549
2023-01-09T14:24:06.592Z,540
2023-01-09T14:25:03.901Z,540
2023-01-09T14:26:03.891Z,540
2023-01-09T14:28:04.074Z,540
2023-01-09T14:29:03.904Z,540
2023-01-09T14:30:03.971Z,540
2023-01-09T14:31:03.901Z,540
2023-01-09T14:33:04.111Z,540
2023-01-09T14:34:16.647Z,530
2023-01-09T14:35:03.897Z,530
2023-01-09T14:36:03.955Z,530
2023-01-09T14:38:04.055Z,530
2023-01-09T14:39:03.897Z,589
2023-01-09T14:40:03.957Z,589
2023-01-09T14:41:03.894Z,589
2023-01-09T14:43:04.080Z,589
2023-01-09T14:44:03.903Z,530
2023-01-09T14:45:03.970Z,530
2023-01-09T14:46:03.965Z,530
2023-01-09T14:48:04.068Z,530
2023-01-09T14:49:03.907Z,578
2023-01-09T14:50:03.906Z,578
2023-01-09T14:51:03.960Z,578
2023-01-09T14:53:04.109Z,578
2023-01-09T14:54:03.962Z,530
2023-01-09T14:55:03.963Z,530
2023-01-09T14:56:05.429Z,530
2023-01-09T14:58:04.172Z,530
2023-01-09T14:59:03.910Z,530
2023-01-09T15:00:03.925Z,530
2023-01-09T15:01:03.988Z,530
2023-01-09T15:03:04.153Z,530
2023-01-09T15:04:03.991Z,578
2023-01-09T15:05:03.920Z,578
2023-01-09T15:06:03.958Z,578
2023-01-09T15:08:04.103Z,578
2023-01-09T15:09:03.950Z,589
2023-01-09T15:10:03.931Z,589
2023-01-09T15:11:03.934Z,589
2023-01-09T15:13:04.092Z,589
2023-01-09T15:14:05.262Z,578
2023-01-09T15:15:03.967Z,578
2023-01-09T15:16:03.989Z,578
2023-01-09T15:18:04.135Z,578
2023-01-09T15:19:03.987Z,626
2023-01-09T15:20:03.975Z,626
2023-01-09T15:21:03.930Z,626
2023-01-09T15:23:04.195Z,626
2023-01-09T15:24:03.920Z,589
2023-01-09T15:25:03.913Z,589
2023-01-09T15:26:03.969Z,589
2023-01-09T15:28:04.104Z,589
2023-01-09T15:29:03.967Z,626
2023-01-09T15:30:03.926Z,626
2023-01-09T15:31:03.990Z,626
2023-01-09T15:33:04.184Z,626
2023-01-09T15:34:03.966Z,626
2023-01-09T15:35:03.922Z,626
2023-01-09T15:36:03.974Z,626
2023-01-09T15:38:04.092Z,626
2023-01-09T15:39:03.925Z,614
2023-01-09T15:40:03.971Z,614
2023-01-09T15:41:03.968Z,614
2023-01-09T15:43:04.112Z,614
2023-01-09T15:44:03.951Z,589
2023-01-09T15:45:03.928Z,589
2023-01-09T15:46:03.961Z,589
2023-01-09T15:48:04.119Z,589
2023-01-09T15:49:03.925Z,540
2023-01-09T15:50:03.982Z,540
2023-01-09T15:51:03.989Z,540
2023-01-09T15:53:04.112Z,540
2023-01-09T15:54:03.983Z,589
2023-01-09T15:55:03.991Z,589
2023-01-09T15:56:03.985Z,589
2023-01-09T15:58:04.098Z,589
2023-01-09T15:59:03.957Z,569
2023-01-09T16:00:03.984Z,569
2023-01-09T16:01:04.032Z,569
2023-01-09T16:03:04.128Z,569
2023-01-09T16:04:03.935Z,561
2023-01-09T16:05:03.989Z,561
2023-01-09T16:06:03.991Z,561
2023-01-09T16:08:04.111Z,561
2023-01-09T16:09:04.040Z,589
2023-01-09T16:10:03.937Z,589
2023-01-09T16:11:04.045Z,589
2023-01-09T16:13:04.144Z,589
2023-01-09T16:14:04.012Z,589
2023-01-09T16:15:03.988Z,589
2023-01-09T16:16:03.990Z,589
2023-01-09T16:18:04.097Z,589
2023-01-09T16:19:04.025Z,578
2023-01-09T16:20:03.992Z,578
2023-01-09T16:21:03.998Z,578
2023-01-09T16:23:04.099Z,578
2023-01-09T16:24:03.948Z,578
2023-01-09T16:25:03.988Z,578
2023-01-09T16:26:03.951Z,578
2023-01-09T16:28:04.135Z,578
2023-01-09T16:29:03.988Z,626
2023-01-09T16:30:03.952Z,626
2023-01-09T16:31:03.944Z,626
2023-01-09T16:33:04.129Z,626
2023-01-09T16:34:03.938Z,626
2023-01-09T16:35:05.643Z,626
2023-01-09T16:36:03.959Z,626
2023-01-09T16:38:04.107Z,626
2023-01-09T16:39:03.946Z,578
2023-01-09T16:40:04.018Z,578
2023-01-09T16:41:03.949Z,578
2023-01-09T16:43:04.123Z,578
2023-01-09T16:44:03.955Z,589
2023-01-09T16:45:03.948Z,589
2023-01-09T16:46:04.018Z,589
2023-01-09T16:48:04.121Z,589
2023-01-09T16:49:04.013Z,540
2023-01-09T16:50:04.156Z,540
2023-01-09T16:51:03.946Z,540
2023-01-09T16:53:04.121Z,540
2023-01-09T16:54:03.998Z,521
2023-01-09T16:55:04.009Z,521
2023-01-09T16:56:03.950Z,521
2023-01-09T16:58:04.146Z,521
2023-01-09T16:59:03.961Z,589
2023-01-09T17:00:04.066Z,589
2023-01-09T17:01:04.106Z,589
2023-01-09T17:03:04.174Z,589
2023-01-09T17:04:03.956Z,626
2023-01-09T17:05:03.966Z,626
2023-01-09T17:06:04.060Z,626
2023-01-09T17:08:04.136Z,626
2023-01-09T17:09:04.012Z,569
2023-01-09T17:10:04.052Z,569
2023-01-09T17:11:04.035Z,569
2023-01-09T17:13:04.140Z,569